Time;durP1;ratioP1;P1;durP2;ratioP2;P2;SDS_P1;SDS_P2;PMS_P1;PMS_P2;Temp;Humidity;BMP_temperature;BMP_pressure;BME280_temperature;BME280_humidity;BME280_pressure;Samples;Min_cycle;Max_cycle;Signal;HPM_P1;HPM_P2
2022/07/17 00:00:26;;;;;;;4.00;3.05;;;;;;;13.19;65.17;95996.22;1678813;85;20977;-64
2022/07/17 00:02:55;;;;;;;3.45;2.20;;;;;;;13.22;65.84;95986.00;1678421;85;21520;-65
2022/07/17 00:05:22;;;;;;;3.60;2.83;;;;;;;13.27;64.75;95985.94;1678777;85;21022;-65
2022/07/17 00:07:49;;;;;;;4.85;3.20;;;;;;;13.32;64.51;95989.35;1678758;85;21559;-65
2022/07/17 00:10:17;;;;;;;4.35;2.52;;;;;;;13.31;64.94;95979.67;1678767;85;21041;-65
2022/07/17 00:12:43;;;;;;;5.55;2.80;;;;;;;13.30;65.12;95984.08;1678543;85;21082;-64
2022/07/17 00:15:12;;;;;;;3.45;2.22;;;;;;;13.33;64.80;95990.66;1678642;85;21038;-65
2022/07/17 00:17:40;;;;;;;2.95;2.55;;;;;;;13.31;64.95;95984.97;1678794;85;21045;-65
2022/07/17 00:20:08;;;;;;;4.83;2.92;;;;;;;13.27;66.01;95997.86;1678674;85;21033;-65
2022/07/17 00:22:36;;;;;;;4.25;2.70;;;;;;;13.30;65.03;95997.33;1679979;85;21092;-64
2022/07/17 00:25:04;;;;;;;4.40;2.95;;;;;;;13.31;65.19;96002.20;1681452;85;21052;-65
2022/07/17 00:27:31;;;;;;;2.75;1.90;;;;;;;13.32;65.48;96010.09;1681195;85;21117;-65
2022/07/17 00:29:57;;;;;;;4.37;2.60;;;;;;;13.35;64.93;96004.72;1681027;85;21038;-65
2022/07/17 00:32:24;;;;;;;2.77;2.20;;;;;;;13.36;65.53;96011.78;1681486;85;21017;-65
2022/07/17 00:34:51;;;;;;;3.17;2.65;;;;;;;13.34;64.70;96013.59;1681448;85;21037;-65
2022/07/17 00:37:18;;;;;;;2.92;2.70;;;;;;;13.38;64.73;96044.43;1681352;85;21033;-65
2022/07/17 00:39:45;;;;;;;3.95;2.50;;;;;;;13.28;64.93;96041.99;1681141;85;21045;-65
2022/07/17 00:42:17;;;;;;;4.80;2.77;;;;;;;13.31;64.87;96043.28;1681295;85;21042;-65
2022/07/17 00:44:44;;;;;;;3.45;2.70;;;;;;;13.36;64.48;96046.70;1681373;85;21507;-65
2022/07/17 00:47:20;;;;;;;3.42;2.58;;;;;;;13.48;64.16;96049.08;1681534;85;21531;-65
2022/07/17 00:49:50;;;;;;;5.72;2.98;;;;;;;13.60;63.56;96056.72;1681424;85;21507;-65
2022/07/17 00:52:18;;;;;;;3.55;2.70;;;;;;;13.76;63.35;96056.39;1681136;85;21069;-65
2022/07/17 00:54:46;;;;;;;2.83;2.47;;;;;;;13.85;62.53;96061.45;1681331;85;21041;-65
2022/07/17 00:57:15;;;;;;;4.12;2.60;;;;;;;13.99;62.32;96065.98;1681071;85;21073;-65
2022/07/17 00:59:43;;;;;;;3.75;2.45;;;;;;;14.10;61.70;96066.17;1681405;85;21049;-65
2022/07/17 01:02:18;;;;;;;3.35;2.35;;;;;;;14.17;61.10;96060.67;1681390;85;21057;-65
2022/07/17 01:04:41;;;;;;;2.33;2.05;;;;;;;14.19;61.07;96073.91;1680814;85;21069;-65
2022/07/17 01:07:10;;;;;;;2.80;2.40;;;;;;;14.18;60.50;96078.33;1681442;85;21062;-65
2022/07/17 01:09:37;;;;;;;2.90;2.33;;;;;;;14.17;60.90;96081.91;1681403;85;20978;-65
2022/07/17 01:12:07;;;;;;;3.47;2.37;;;;;;;14.16;60.90;96083.26;1681101;85;21567;-65
2022/07/17 01:14:34;;;;;;;2.62;2.12;;;;;;;14.15;60.87;96081.52;1681561;85;21053;-65
2022/07/17 01:17:01;;;;;;;6.92;2.95;;;;;;;14.19;60.46;96087.19;1681611;85;21029;-65
2022/07/17 01:19:27;;;;;;;4.87;2.62;;;;;;;14.20;60.42;96089.78;1681319;85;21082;-65
2022/07/17 01:21:54;;;;;;;4.97;2.50;;;;;;;14.21;59.97;96091.97;1680887;85;21120;-65
2022/07/17 01:24:21;;;;;;;5.85;2.58;;;;;;;14.21;60.37;96087.99;1678536;85;21107;-65
2022/07/17 01:26:49;;;;;;;3.47;2.50;;;;;;;14.16;60.38;96096.52;1678193;85;21049;-65
2022/07/17 01:29:17;;;;;;;3.70;2.42;;;;;;;14.09;60.46;96107.77;1678845;85;20998;-65
2022/07/17 01:31:44;;;;;;;3.33;2.40;;;;;;;14.02;60.55;96107.48;1678715;85;21076;-65
2022/07/17 01:34:15;;;;;;;2.27;2.08;;;;;;;13.91;60.99;96104.20;1678591;85;21021;-65
2022/07/17 01:36:42;;;;;;;3.05;2.27;;;;;;;13.83;61.22;96107.03;1678633;85;21030;-65
2022/07/17 01:39:09;;;;;;;2.83;2.58;;;;;;;13.78;61.53;96111.14;1678782;85;21025;-65
2022/07/17 01:41:36;;;;;;;4.25;2.33;;;;;;;13.71;61.22;96111.28;1678645;85;21622;-65
2022/07/17 01:44:03;;;;;;;3.25;2.40;;;;;;;13.68;61.37;96099.43;1678841;85;21049;-65
2022/07/17 01:46:30;;;;;;;3.90;2.30;;;;;;;13.59;61.99;96101.85;1651633;85;21122;-65
2022/07/17 01:48:57;;;;;;;4.97;1.95;;;;;;;13.45;62.00;96096.83;1678407;85;21049;-65
2022/07/17 01:51:24;;;;;;;1.92;1.77;;;;;;;13.37;62.95;96104.09;1678832;85;21013;-65
2022/07/17 01:53:51;;;;;;;3.35;1.95;;;;;;;13.26;62.90;96107.40;1678744;85;20978;-64
2022/07/17 01:56:17;;;;;;;3.65;2.50;;;;;;;13.20;63.13;96103.07;1678742;85;21045;-64
2022/07/17 01:58:44;;;;;;;3.15;2.05;;;;;;;13.15;63.08;96110.25;1678711;85;21041;-65
2022/07/17 02:01:11;;;;;;;3.90;2.20;;;;;;;13.09;63.16;96104.63;1678488;85;21623;-65
2022/07/17 02:03:37;;;;;;;2.30;1.92;;;;;;;12.98;63.36;96108.82;1678674;85;21037;-65
2022/07/17 02:06:04;;;;;;;2.00;1.85;;;;;;;12.90;63.60;96108.53;1678754;85;20974;-65
2022/07/17 02:08:31;;;;;;;3.40;2.00;;;;;;;12.83;64.24;96109.13;1678626;85;20998;-65
2022/07/17 02:10:57;;;;;;;3.55;2.08;;;;;;;12.72;65.95;96119.03;1678686;85;21045;-65
2022/07/17 02:13:25;;;;;;;3.58;2.00;;;;;;;12.61;66.92;96119.69;1678373;85;21108;-65
2022/07/17 02:15:51;;;;;;;2.40;1.77;;;;;;;12.55;66.66;96123.33;1678646;85;21006;-65
2022/07/17 02:18:18;;;;;;;3.87;2.10;;;;;;;12.49;66.16;96122.09;1678823;85;20990;-65
2022/07/17 02:20:49;;;;;;;4.25;1.90;;;;;;;12.48;66.37;96121.69;1678658;85;21547;-65
2022/07/17 02:23:13;;;;;;;3.77;2.30;;;;;;;12.46;67.44;96120.83;1679782;85;21156;-65
2022/07/17 02:25:40;;;;;;;3.58;1.77;;;;;;;12.46;66.92;96126.12;1681603;85;21033;-64
2022/07/17 02:28:07;;;;;;;3.92;2.15;;;;;;;12.37;68.12;96133.76;1681467;85;21002;-65
2022/07/17 02:30:34;;;;;;;3.45;1.77;;;;;;;12.33;67.86;96130.76;1681473;85;21017;-65
2022/07/17 02:33:00;;;;;;;4.67;2.00;;;;;;;12.32;67.89;96127.67;1681504;85;21046;-65
2022/07/17 02:35:27;;;;;;;4.53;1.70;;;;;;;12.30;67.79;96130.36;1681468;85;21044;-65
2022/07/17 02:37:54;;;;;;;4.53;1.80;;;;;;;12.29;68.41;96126.41;1681453;85;21037;-65
2022/07/17 02:40:21;;;;;;;3.55;1.70;;;;;;;12.30;68.17;96133.46;1681589;85;21535;-65
2022/07/17 02:42:47;;;;;;;2.77;1.60;;;;;;;12.33;68.06;96138.70;1681369;85;21049;-65
2022/07/17 02:45:14;;;;;;;2.15;1.55;;;;;;;12.27;68.11;96145.39;1681488;85;21500;-65
2022/07/17 02:47:41;;;;;;;2.15;1.62;;;;;;;12.23;68.18;96147.23;1681808;85;21029;-65
2022/07/17 02:50:10;;;;;;;4.35;1.65;;;;;;;12.27;67.72;96148.94;1681189;85;21112;-65
2022/07/17 02:52:37;;;;;;;4.80;2.00;;;;;;;12.19;68.60;96145.52;1681431;85;21077;-64
2022/07/17 02:55:06;;;;;;;2.98;2.10;;;;;;;12.15;68.15;96139.01;1681706;85;21049;-65
2022/07/17 02:57:33;;;;;;;2.83;2.37;;;;;;;12.10;68.51;96146.55;1681350;85;21053;-65
2022/07/17 03:00:00;;;;;;;2.83;1.80;;;;;;;11.99;69.11;96148.48;1681186;85;21124;-65
2022/07/17 03:02:26;;;;;;;1.80;1.70;;;;;;;11.90;68.92;96149.95;1681506;85;21033;-65
2022/07/17 03:04:53;;;;;;;5.40;1.90;;;;;;;11.87;69.24;96145.59;1681202;85;21129;-64
2022/07/17 03:07:20;;;;;;;5.13;2.47;;;;;;;11.81;68.86;96148.27;1681517;85;21013;-65
2022/07/17 03:09:46;;;;;;;2.63;2.20;;;;;;;11.76;69.70;96148.79;1681177;85;21511;-65
2022/07/17 03:12:13;;;;;;;4.40;1.90;;;;;;;11.74;68.98;96143.09;1681216;85;21128;-65
2022/07/17 03:14:39;;;;;;;2.70;1.90;;;;;;;11.75;68.91;96140.90;1681379;85;21005;-65
2022/07/17 03:17:06;;;;;;;3.43;2.30;;;;;;;11.76;69.44;96139.98;1681616;85;21001;-65
2022/07/17 03:19:33;;;;;;;2.77;2.43;;;;;;;11.78;69.33;96140.84;1681148;85;21144;-65
2022/07/17 03:22:00;;;;;;;4.03;2.47;;;;;;;11.72;69.23;96151.07;1681441;85;21069;-65
2022/07/17 03:24:27;;;;;;;4.03;2.40;;;;;;;11.68;69.89;96148.89;1678428;85;21539;-65
2022/07/17 03:26:53;;;;;;;2.30;2.10;;;;;;;11.65;69.68;96148.08;1678796;85;21064;-65
2022/07/17 03:29:20;;;;;;;2.37;1.97;;;;;;;11.65;70.49;96145.44;1678431;85;21096;-65
2022/07/17 03:31:48;;;;;;;4.03;2.40;;;;;;;11.65;70.74;96146.30;1678812;85;21037;-65
2022/07/17 03:34:15;;;;;;;2.97;2.47;;;;;;;11.65;70.67;96146.30;1678698;85;21539;-65
2022/07/17 03:36:42;;;;;;;4.40;2.67;;;;;;;11.66;71.39;96147.17;1678999;85;21022;-65
2022/07/17 03:39:09;;;;;;;4.00;2.43;;;;;;;11.76;70.20;96151.88;1678688;85;21037;-65
2022/07/17 03:41:36;;;;;;;2.50;2.17;;;;;;;11.83;69.66;96161.48;1678655;85;21037;-65
2022/07/17 03:44:04;;;;;;;2.25;2.05;;;;;;;11.89;69.67;96158.77;1678386;85;21144;-65
2022/07/17 03:46:30;;;;;;;5.50;2.33;;;;;;;11.97;69.74;96166.16;1678728;85;21467;-65
2022/07/17 03:48:57;;;;;;;38.90;17.67;;;;;;;12.01;69.77;96159.91;1678535;85;21050;-65
2022/07/17 03:51:25;;;;;;;24.57;12.40;;;;;;;12.07;69.29;96163.80;1678789;85;21528;-65
2022/07/17 03:53:52;;;;;;;17.62;9.65;;;;;;;12.19;69.10;96164.04;1678775;85;21070;-65
2022/07/17 03:56:19;;;;;;;10.30;5.03;;;;;;;12.37;68.87;96162.00;1678680;85;21069;-65
2022/07/17 03:58:45;;;;;;;8.50;4.85;;;;;;;12.50;68.00;96162.24;1678649;85;21033;-65
2022/07/17 04:01:12;;;;;;;10.23;6.47;;;;;;;12.62;67.65;96161.13;1678333;85;21136;-65
2022/07/17 04:03:38;;;;;;;12.20;7.65;;;;;;;12.71;67.60;96161.85;1678778;85;21025;-65
2022/07/17 04:06:05;;;;;;;9.23;5.65;;;;;;;12.83;67.60;96164.73;1678879;85;21037;-65
2022/07/17 04:08:32;;;;;;;7.37;4.95;;;;;;;12.86;67.67;96165.13;1678774;85;21006;-65
2022/07/17 04:10:59;;;;;;;7.37;4.87;;;;;;;12.89;67.17;96166.39;1678965;85;21010;-64
2022/07/17 04:13:25;;;;;;;4.35;3.10;;;;;;;13.02;67.24;96169.22;1678694;85;21026;-65
2022/07/17 04:15:52;;;;;;;4.87;2.58;;;;;;;13.15;66.73;96154.86;1678378;85;21049;-65
2022/07/17 04:18:20;;;;;;;2.55;2.10;;;;;;;13.32;66.72;96169.57;1678830;85;21030;-65
2022/07/17 04:20:49;;;;;;;5.12;1.67;;;;;;;13.45;66.23;96163.11;1678606;85;21006;-65
2022/07/17 04:23:16;;;;;;;5.12;2.20;;;;;;;13.63;65.87;96169.80;1678733;85;21045;-65
2022/07/17 04:25:43;;;;;;;2.60;2.15;;;;;;;13.75;65.42;96165.55;1678478;85;21582;-64
2022/07/17 04:28:11;;;;;;;3.08;2.10;;;;;;;13.89;65.47;96173.23;1678595;85;21073;-65
2022/07/17 04:30:38;;;;;;;6.67;2.85;;;;;;;13.96;65.46;96172.19;1678549;85;21504;-64
2022/07/17 04:33:07;;;;;;;6.65;4.67;;;;;;;14.08;65.49;96177.64;1678514;85;22350;-65
2022/07/17 04:35:34;;;;;;;5.50;4.00;;;;;;;14.18;65.03;96179.17;1678372;85;21045;-65
2022/07/17 04:38:01;;;;;;;3.12;2.33;;;;;;;14.29;64.76;96177.62;1674306;85;21041;-65
2022/07/17 04:40:29;;;;;;;4.17;1.72;;;;;;;14.40;64.21;96179.55;1678852;85;21026;-65
2022/07/17 04:42:55;;;;;;;1.77;1.60;;;;;;;14.54;63.14;96179.69;1678416;85;21049;-65
2022/07/17 04:45:22;;;;;;;2.70;1.50;;;;;;;14.69;62.46;96178.88;1678506;85;21057;-65
2022/07/17 04:47:49;;;;;;;1.32;1.22;;;;;;;14.85;61.70;96174.48;1678892;85;21005;-65
2022/07/17 04:50:15;;;;;;;1.00;1.00;;;;;;;14.97;60.51;96175.93;1678684;85;21025;-65
2022/07/17 04:52:42;;;;;;;1.70;1.20;;;;;;;15.09;60.08;96184.48;1678983;85;21017;-65
2022/07/17 04:55:09;;;;;;;1.65;1.17;;;;;;;15.19;58.81;96178.43;1678445;85;21018;-65
2022/07/17 04:57:36;;;;;;;1.37;1.10;;;;;;;15.26;58.59;96181.34;1678340;85;21001;-65
2022/07/17 05:00:07;;;;;;;1.12;1.02;;;;;;;15.35;58.04;96176.23;1678741;85;21536;-65
2022/07/17 05:02:33;;;;;;;1.15;1.05;;;;;;;15.44;57.39;96177.29;1678870;85;21033;-65
2022/07/17 05:05:01;;;;;;;1.80;1.10;;;;;;;15.54;57.59;96180.09;1678602;85;21498;-65
2022/07/17 05:07:28;;;;;;;2.20;1.05;;;;;;;15.62;57.24;96183.86;1678751;85;21475;-65
2022/07/17 05:09:55;;;;;;;1.55;1.00;;;;;;;15.71;56.36;96176.13;1678740;85;21057;-65
2022/07/17 05:12:21;;;;;;;1.00;0.90;;;;;;;15.78;55.81;96177.23;1678898;85;21046;-65
2022/07/17 05:14:48;;;;;;;1.67;1.00;;;;;;;15.90;55.92;96185.31;1678728;85;21074;-65
2022/07/17 05:17:15;;;;;;;3.15;1.20;;;;;;;15.97;54.63;96186.84;1678546;85;21066;-65
2022/07/17 05:19:42;;;;;;;4.22;1.07;;;;;;;16.05;54.39;96186.64;1678422;85;21125;-65
2022/07/17 05:22:09;;;;;;;1.27;0.70;;;;;;;16.08;51.45;96195.86;1678613;85;21069;-65
2022/07/17 05:24:35;;;;;;;2.47;0.80;;;;;;;16.12;51.58;96189.50;1676988;85;21125;-65
2022/07/17 05:27:02;;;;;;;1.85;0.78;;;;;;;16.10;50.21;96185.14;1678712;85;21527;-65
2022/07/17 05:29:49;;;;;;;3.00;1.02;;;;;;;16.10;50.11;96191.80;1641678;87;21565;-65
2022/07/17 05:32:15;;;;;;;1.17;0.93;;;;;;;16.16;50.01;96192.95;1644650;87;21042;-65
2022/07/17 05:34:42;;;;;;;1.25;0.80;;;;;;;16.22;50.60;96198.94;1649745;87;21085;-65
2022/07/17 05:37:08;;;;;;;1.20;0.60;;;;;;;16.29;49.75;96198.30;1644647;87;21043;-65
2022/07/17 05:39:35;;;;;;;2.80;1.00;;;;;;;16.35;49.97;96198.09;1644782;87;20990;-65
2022/07/17 05:42:02;;;;;;;2.08;1.20;;;;;;;16.42;48.33;96195.66;1649316;87;21556;-64
2022/07/17 05:44:29;;;;;;;1.10;1.00;;;;;;;16.47;46.18;96195.98;1644417;87;21071;-65
2022/07/17 05:46:55;;;;;;;1.07;0.70;;;;;;;16.54;47.52;96196.20;1644635;87;21037;-65
2022/07/17 05:49:22;;;;;;;2.27;0.90;;;;;;;16.61;47.48;96205.27;1649706;87;21010;-65
2022/07/17 05:51:49;;;;;;;2.60;0.70;;;;;;;16.71;46.72;96204.98;1644556;87;21517;-65
2022/07/17 05:54:15;;;;;;;0.98;0.65;;;;;;;16.77;45.81;96199.44;1644438;87;21030;-65
2022/07/17 05:56:42;;;;;;;1.00;0.70;;;;;;;16.86;46.75;96205.84;1649677;87;21042;-65
2022/07/17 05:59:09;;;;;;;1.25;0.68;;;;;;;16.96;46.20;96207.70;1644332;87;21540;-65
2022/07/17 06:01:36;;;;;;;1.27;0.70;;;;;;;17.03;46.58;96209.23;1644894;87;21054;-65
2022/07/17 06:04:02;;;;;;;1.75;0.62;;;;;;;17.11;45.30;96208.97;1649706;87;21536;-65
2022/07/17 06:06:29;;;;;;;0.55;0.50;;;;;;;17.16;45.35;96217.25;1644404;87;21078;-65
2022/07/17 06:08:56;;;;;;;1.00;0.70;;;;;;;17.23;44.97;96216.08;1644922;87;21038;-65
2022/07/17 06:11:23;;;;;;;0.40;0.40;;;;;;;17.30;44.71;96216.75;1649671;87;21046;-65
2022/07/17 06:13:49;;;;;;;2.45;0.75;;;;;;;17.32;44.14;96222.05;1644524;87;21014;-65
2022/07/17 06:16:16;;;;;;;1.00;0.90;;;;;;;17.40;44.59;96223.50;1644415;87;21103;-65
2022/07/17 06:18:42;;;;;;;0.60;0.53;;;;;;;17.50;43.56;96227.58;1649687;87;21453;-65
2022/07/17 06:21:09;;;;;;;2.65;0.60;;;;;;;17.46;43.57;96217.07;1644295;87;21576;-65
2022/07/17 06:23:36;;;;;;;0.80;0.70;;;;;;;17.67;43.45;96232.80;1644689;87;21070;-65
2022/07/17 06:26:03;;;;;;;2.35;0.70;;;;;;;17.67;43.45;96232.80;1649320;87;21026;-65
2022/07/17 06:28:29;;;;;;;1.02;0.60;;;;;;;17.69;43.33;96240.28;1642711;87;21070;-65
2022/07/17 06:30:57;;;;;;;1.10;0.70;;;;;;;17.72;42.85;96250.37;1639769;87;21062;-65
2022/07/17 06:33:24;;;;;;;1.42;0.57;;;;;;;17.78;42.96;96256.41;1642795;87;21002;-65
2022/07/17 06:35:50;;;;;;;3.52;0.93;;;;;;;17.74;42.62;96245.86;1625604;88;21042;-65
2022/07/17 06:38:17;;;;;;;0.62;0.60;;;;;;;17.86;42.54;96247.69;1640095;87;20987;-65
2022/07/17 06:40:43;;;;;;;0.60;0.60;;;;;;;17.93;41.98;96255.41;1642991;87;21062;-65
2022/07/17 06:43:10;;;;;;;1.80;0.72;;;;;;;17.98;41.54;96256.58;1625467;88;21030;-65
2022/07/17 06:45:37;;;;;;;0.60;0.53;;;;;;;18.03;41.45;96256.42;1640057;87;21055;-64
2022/07/17 06:48:05;;;;;;;2.15;0.80;;;;;;;18.08;41.40;96262.45;1642754;87;21030;-65
2022/07/17 06:50:31;;;;;;;0.82;0.80;;;;;;;18.16;41.31;96266.56;1625791;88;21038;-65
2022/07/17 06:52:58;;;;;;;1.17;0.80;;;;;;;18.19;41.04;96266.05;1640098;87;20987;-65
2022/07/17 06:55:25;;;;;;;2.17;0.75;;;;;;;18.21;41.23;96267.73;1642745;87;21600;-64
2022/07/17 06:57:52;;;;;;;3.55;1.05;;;;;;;18.22;41.32;96269.49;1639934;87;21078;-65
2022/07/17 07:00:18;;;;;;;1.80;1.50;;;;;;;18.30;41.07;96270.53;1639863;87;21058;-64
2022/07/17 07:02:46;;;;;;;3.22;0.95;;;;;;;18.33;40.39;96271.75;1642622;87;21073;-64
2022/07/17 07:05:12;;;;;;;3.47;1.82;;;;;;;18.34;40.77;96273.03;1625697;88;21552;-65
2022/07/17 07:07:39;;;;;;;1.10;0.70;;;;;;;18.43;40.45;96269.13;1640060;87;21568;-65
2022/07/17 07:10:07;;;;;;;2.25;0.75;;;;;;;18.50;40.64;96272.44;1642447;87;21018;-64
2022/07/17 07:12:34;;;;;;;1.12;0.50;;;;;;;18.58;40.51;96272.53;1640089;87;21062;-65
2022/07/17 07:15:01;;;;;;;1.67;0.80;;;;;;;18.66;40.11;96276.70;1639770;87;21043;-64
2022/07/17 07:17:28;;;;;;;0.68;0.60;;;;;;;18.70;40.50;96281.02;1643016;87;21022;-65
2022/07/17 07:19:54;;;;;;;1.57;0.57;;;;;;;18.82;40.61;96279.19;1625911;88;21062;-64
2022/07/17 07:22:21;;;;;;;1.55;0.50;;;;;;;18.96;40.71;96279.98;1640183;87;21082;-65
2022/07/17 07:24:48;;;;;;;0.95;0.75;;;;;;;19.01;39.30;96286.88;1642464;87;21054;-64
2022/07/17 07:27:14;;;;;;;1.87;0.68;;;;;;;19.10;39.17;96286.98;1640256;87;21082;-65
2022/07/17 07:29:41;;;;;;;1.62;0.57;;;;;;;19.24;39.47;96286.40;1638309;86;21150;-65
2022/07/17 07:32:07;;;;;;;0.70;0.60;;;;;;;19.36;39.31;96283.69;1644961;87;21070;-64
2022/07/17 07:34:34;;;;;;;2.20;0.65;;;;;;;19.47;38.76;96281.41;1637750;88;21517;-65
2022/07/17 07:37:01;;;;;;;1.90;0.70;;;;;;;19.53;37.94;96289.64;1637817;87;21039;-64
2022/07/17 07:39:28;;;;;;;2.58;0.60;;;;;;;19.56;37.17;96295.75;1645134;87;21070;-65
2022/07/17 07:41:54;;;;;;;1.98;0.70;;;;;;;19.59;37.25;96298.77;1637808;87;21070;-65
2022/07/17 07:44:21;;;;;;;4.30;0.70;;;;;;;19.62;36.86;96291.93;1637461;87;21106;-65
2022/07/17 07:46:48;;;;;;;3.17;0.70;;;;;;;19.76;37.14;96294.92;1644820;87;21065;-65
2022/07/17 07:49:15;;;;;;;3.60;0.70;;;;;;;19.83;35.87;96288.36;1637729;88;21054;-65
2022/07/17 07:51:42;;;;;;;1.87;0.62;;;;;;;19.88;36.58;96285.45;1637735;87;21039;-65
2022/07/17 07:54:09;;;;;;;3.55;0.60;;;;;;;19.90;35.98;96288.94;1645056;87;21046;-65
2022/07/17 07:56:36;;;;;;;0.80;0.60;;;;;;;19.97;36.37;96285.06;1637853;87;21485;-65
2022/07/17 07:59:03;;;;;;;1.35;0.80;;;;;;;19.97;35.42;96285.53;1637514;87;21121;-65
2022/07/17 08:01:30;;;;;;;1.15;0.50;;;;;;;20.01;35.75;96291.16;1645052;87;21053;-65
2022/07/17 08:03:57;;;;;;;3.90;0.70;;;;;;;19.68;34.46;96302.42;1637784;88;21039;-65
2022/07/17 08:06:23;;;;;;;1.70;0.90;;;;;;;19.84;35.33;96310.66;1638007;87;21026;-65
2022/07/17 08:08:50;;;;;;;1.00;0.80;;;;;;;19.95;34.50;96297.64;1645019;87;21030;-65
2022/07/17 08:11:17;;;;;;;1.07;0.60;;;;;;;20.06;33.01;96308.77;1637813;87;21068;-65
2022/07/17 08:13:43;;;;;;;1.80;0.70;;;;;;;20.17;33.67;96311.43;1637528;88;21038;-65
2022/07/17 08:16:11;;;;;;;1.70;0.53;;;;;;;20.30;33.73;96320.64;1645268;87;21063;-65
2022/07/17 08:18:37;;;;;;;2.50;0.50;;;;;;;20.38;34.20;96314.45;1637701;88;21015;-65
2022/07/17 08:21:04;;;;;;;3.35;0.80;;;;;;;20.24;33.30;96316.92;1637731;87;21011;-65
2022/07/17 08:23:31;;;;;;;1.37;0.80;;;;;;;20.22;33.80;96304.05;1644816;87;21007;-65
2022/07/17 08:25:57;;;;;;;1.95;0.70;;;;;;;20.31;34.66;96308.53;1637710;88;21516;-65
2022/07/17 08:28:24;;;;;;;1.80;0.60;;;;;;;20.58;34.17;96304.19;1637843;86;21073;-65
2022/07/17 08:30:52;;;;;;;1.85;0.60;;;;;;;20.74;33.74;96303.02;1642819;87;21039;-65
2022/07/17 08:33:18;;;;;;;1.72;0.70;;;;;;;20.79;33.82;96306.79;1640067;87;21023;-65
2022/07/17 08:35:45;;;;;;;2.07;0.70;;;;;;;20.90;34.16;96308.51;1639790;87;21093;-65
2022/07/17 08:38:12;;;;;;;3.08;0.90;;;;;;;21.09;33.95;96301.31;1643205;87;21011;-65
2022/07/17 08:40:39;;;;;;;1.52;0.80;;;;;;;21.23;33.14;96303.30;1640048;87;21024;-65
2022/07/17 08:43:08;;;;;;;2.00;0.70;;;;;;;21.36;33.05;96303.55;1640160;87;21556;-65
2022/07/17 08:45:35;;;;;;;2.37;0.65;;;;;;;;;;1642816;87;21102;-65
2022/07/17 08:48:02;;;;;;;1.30;0.60;;;;;;;21.53;31.76;96303.61;1612385;89;21050;-65
2022/07/17 08:50:33;;;;;;;2.20;0.80;;;;;;;21.53;32.59;96305.44;1639920;87;21050;-65
2022/07/17 08:53:01;;;;;;;1.72;0.70;;;;;;;21.71;32.70;96303.14;1642831;87;21053;-65
2022/07/17 08:55:29;;;;;;;1.87;0.62;;;;;;;21.81;31.15;96306.23;1640049;87;21014;-65
2022/07/17 08:57:56;;;;;;;2.47;1.05;;;;;;;21.77;31.00;96313.59;1640089;87;21584;-65
2022/07/17 09:00:25;;;;;;;3.75;0.72;;;;;;;21.82;30.84;96314.67;1642848;87;21491;-65
2022/07/17 09:03:06;;;;;;;3.67;0.90;;;;;;;21.91;30.80;96306.63;1625601;88;21070;-65
2022/07/17 09:05:37;;;;;;;1.67;0.80;;;;;;;21.94;31.72;96309.14;1640065;87;21018;-65
2022/07/17 09:08:07;;;;;;;5.85;0.70;;;;;;;21.99;30.14;96311.11;1612611;89;21605;-65
2022/07/17 09:10:38;;;;;;;1.92;0.80;;;;;;;22.12;30.67;96310.85;1639997;87;21022;-65
2022/07/17 09:13:28;;;;;;;1.30;0.72;;;;;;;22.27;31.02;96305.17;1642821;87;21086;-65
2022/07/17 09:16:03;;;;;;;1.60;0.72;;;;;;;22.44;30.63;96303.79;1625789;88;21042;-65
2022/07/17 09:18:29;;;;;;;1.55;0.80;;;;;;;22.62;30.78;96311.32;1638497;87;21070;-65
2022/07/17 09:20:58;;;;;;;1.77;0.70;;;;;;;22.67;29.51;96312.42;1642880;87;21022;-66
2022/07/17 09:23:26;;;;;;;1.50;0.90;;;;;;;22.84;30.62;96308.80;1639942;87;21035;-65
2022/07/17 09:25:57;;;;;;;2.25;0.60;;;;;;;22.83;29.42;96316.02;1640103;87;21082;-65
2022/07/17 09:28:24;;;;;;;1.17;0.90;;;;;;;22.84;29.77;96310.15;1642587;87;21058;-65
2022/07/17 09:30:54;;;;;;;1.52;0.80;;;;;;;22.97;29.85;96311.22;1637468;87;21007;-65
2022/07/17 09:33:28;;;;;;;2.85;0.72;;;;;;;23.09;29.86;96312.36;1637656;88;21085;-65
2022/07/17 09:35:59;;;;;;;2.37;0.80;;;;;;;23.21;29.75;96309.42;1644983;87;21050;-65
2022/07/17 09:38:35;;;;;;;1.72;0.80;;;;;;;23.29;29.78;96312.56;1636566;87;21061;-65
2022/07/17 09:41:15;;;;;;;2.08;0.60;;;;;;;23.42;29.36;96309.55;1637781;88;21486;-65
2022/07/17 09:43:52;;;;;;;1.20;0.50;;;;;;;23.69;29.48;96312.45;1644441;87;21066;-65
2022/07/17 09:46:32;;;;;;;1.02;0.70;;;;;;;23.71;28.08;96323.11;1637668;87;21027;-65
2022/07/17 09:49:04;;;;;;;1.15;0.70;;;;;;;23.79;28.06;96320.89;1637690;87;21560;-65
2022/07/17 09:51:39;;;;;;;1.10;0.60;;;;;;;23.93;28.24;96317.35;1644775;87;21082;-65
2022/07/17 09:54:10;;;;;;;0.53;0.53;;;;;;;24.11;27.69;96322.11;1637480;88;21134;-65
2022/07/17 09:56:39;;;;;;;3.47;0.80;;;;;;;24.21;27.48;96312.98;1637796;88;21034;-65
2022/07/17 09:59:10;;;;;;;4.03;0.95;;;;;;;24.05;26.68;96311.22;1644566;87;21142;-65
2022/07/17 10:01:39;;;;;;;2.10;0.88;;;;;;;24.21;27.11;96310.28;1637665;87;21113;-65
2022/07/17 10:04:07;;;;;;;0.90;0.60;;;;;;;24.28;26.34;96318.39;1637766;88;21547;-65
2022/07/17 10:06:34;;;;;;;1.15;0.78;;;;;;;24.18;26.84;96314.89;1644958;87;21062;-65
2022/07/17 10:09:03;;;;;;;1.75;0.70;;;;;;;24.34;26.50;96309.91;1637400;88;21106;-65
2022/07/17 10:11:33;;;;;;;1.85;0.80;;;;;;;24.50;25.44;96318.83;1637613;87;21106;-65
2022/07/17 10:14:13;;;;;;;2.02;0.78;;;;;;;24.32;25.30;96318.11;1645080;87;21054;-65
2022/07/17 10:16:40;;;;;;;1.35;0.72;;;;;;;24.44;25.32;96311.55;1637870;87;21062;-65
2022/07/17 10:19:22;;;;;;;2.33;0.78;;;;;;;24.48;25.77;96308.61;1637421;88;21090;-65
2022/07/17 10:21:59;;;;;;;1.35;0.70;;;;;;;24.45;25.06;96307.45;1645011;87;21042;-65
2022/07/17 10:24:29;;;;;;;1.45;0.78;;;;;;;24.63;25.33;96300.52;1637934;88;21051;-65
2022/07/17 10:26:57;;;;;;;3.02;0.70;;;;;;;24.76;24.43;96304.16;1637600;88;21050;-65
2022/07/17 10:29:38;;;;;;;5.87;0.80;;;;;;;24.87;25.26;96302.13;1644880;87;21053;-65
2022/07/17 10:32:14;;;;;;;1.37;0.60;;;;;;;25.16;24.75;96298.89;1644978;87;21027;-65
2022/07/17 10:34:45;;;;;;;2.20;0.98;;;;;;;25.35;23.97;96303.97;1644662;87;21037;-65
2022/07/17 10:37:22;;;;;;;2.37;0.80;;;;;;;25.40;24.17;96307.23;1644905;87;21062;-65
2022/07/17 10:40:11;;;;;;;1.05;0.50;;;;;;;25.34;23.15;96299.05;1644636;87;21882;-65
2022/07/17 10:42:59;;;;;;;2.45;0.80;;;;;;;25.26;23.86;96296.00;1644948;87;21089;-65
2022/07/17 10:45:44;;;;;;;4.83;0.80;;;;;;;25.37;23.39;96298.84;1644800;87;21571;-65
2022/07/17 10:48:19;;;;;;;2.47;0.75;;;;;;;25.41;22.47;96304.44;1644718;87;21070;-65
2022/07/17 10:50:50;;;;;;;0.78;0.55;;;;;;;25.62;22.80;96302.13;1645089;87;21045;-65
2022/07/17 10:53:29;;;;;;;2.25;0.88;;;;;;;25.05;22.74;96288.80;1645229;87;21524;-65
2022/07/17 10:56:08;;;;;;;1.75;0.62;;;;;;;25.42;23.98;96299.41;1645049;87;21009;-64
2022/07/17 10:58:43;;;;;;;0.90;0.72;;;;;;;25.45;22.13;96295.63;1644981;87;21524;-65
2022/07/17 11:01:17;;;;;;;2.80;0.75;;;;;;;25.62;22.21;96303.48;1644679;87;21043;-64
2022/07/17 11:03:54;;;;;;;2.20;0.72;;;;;;;25.74;22.17;96299.09;1644452;87;21508;-65
2022/07/17 11:06:34;;;;;;;0.82;0.70;;;;;;;25.72;22.20;96298.32;1645037;87;21007;-65
2022/07/17 11:09:13;;;;;;;1.20;0.75;;;;;;;25.82;21.41;96298.56;1644927;87;21054;-65
2022/07/17 11:11:47;;;;;;;1.05;0.93;;;;;;;25.75;22.49;96304.00;1645022;87;21074;-65
2022/07/17 11:14:19;;;;;;;5.97;0.82;;;;;;;25.79;23.52;96305.54;1645137;87;21026;-65
2022/07/17 11:16:51;;;;;;;2.37;0.70;;;;;;;25.88;23.61;96307.17;1644899;87;21049;-65
2022/07/17 11:19:25;;;;;;;2.62;0.72;;;;;;;25.82;24.16;96301.27;1644960;87;21336;-65
2022/07/17 11:21:54;;;;;;;1.05;0.60;;;;;;;25.97;23.84;96307.02;1644395;86;21057;-65
2022/07/17 11:24:21;;;;;;;2.58;0.68;;;;;;;25.84;23.82;96313.71;1645122;87;21014;-65
2022/07/17 11:26:51;;;;;;;0.60;0.60;;;;;;;25.95;24.45;96313.00;1644969;87;21504;-65
2022/07/17 11:29:18;;;;;;;0.93;0.82;;;;;;;26.12;23.73;96305.09;1644602;87;21054;-65
2022/07/17 11:31:45;;;;;;;1.15;0.80;;;;;;;26.07;23.44;96306.75;1637777;88;21047;-64
2022/07/17 11:34:12;;;;;;;1.20;0.70;;;;;;;26.07;23.75;96295.08;1637866;88;21014;-65
2022/07/17 11:36:43;;;;;;;4.12;0.90;;;;;;;26.15;24.04;96302.16;1644619;87;21054;-65
2022/07/17 11:39:14;;;;;;;1.17;0.82;;;;;;;26.25;24.22;96304.61;1637561;87;21516;-65